sensor_id;sensor_type;location;lat;lon;timestamp;P1;durP1;ratioP1;P2;durP2;ratioP2
12359;SDS011;6244;51.460;7.090;2022-08-19T00:04:07;1131.03;;;853.70;;
12359;SDS011;6244;51.460;7.090;2022-08-19T00:09:07;1134.82;;;862.67;;
12359;SDS011;6244;51.460;7.090;2022-08-19T00:14:06;1136.07;;;854.83;;
12359;SDS011;6244;51.460;7.090;2022-08-19T00:19:07;1134.45;;;861.22;;
12359;SDS011;6244;51.460;7.090;2022-08-19T00:24:04;1133.73;;;848.83;;
12359;SDS011;6244;51.460;7.090;2022-08-19T00:29:02;1138.75;;;857.45;;
12359;SDS011;6244;51.460;7.090;2022-08-19T00:33:59;1137.78;;;874.13;;
12359;SDS011;6244;51.460;7.090;2022-08-19T00:38:57;1136.15;;;866.45;;
12359;SDS011;6244;51.460;7.090;2022-08-19T00:43:58;1136.72;;;873.03;;
12359;SDS011;6244;51.460;7.090;2022-08-19T00:48:57;1132.30;;;896.20;;
12359;SDS011;6244;51.460;7.090;2022-08-19T00:53:54;1138.05;;;890.20;;
12359;SDS011;6244;51.460;7.090;2022-08-19T00:58:54;1138.38;;;907.72;;
12359;SDS011;6244;51.460;7.090;2022-08-19T01:03:52;1136.30;;;893.33;;
12359;SDS011;6244;51.460;7.090;2022-08-19T01:08:49;1136.63;;;892.43;;
12359;SDS011;6244;51.460;7.090;2022-08-19T01:13:46;1138.78;;;895.40;;
12359;SDS011;6244;51.460;7.090;2022-08-19T01:18:44;1138.57;;;887.90;;
12359;SDS011;6244;51.460;7.090;2022-08-19T01:23:42;1137.38;;;891.13;;
12359;SDS011;6244;51.460;7.090;2022-08-19T01:28:39;1138.57;;;900.25;;
12359;SDS011;6244;51.460;7.090;2022-08-19T01:33:36;1135.97;;;889.67;;
12359;SDS011;6244;51.460;7.090;2022-08-19T01:38:34;1136.18;;;890.38;;
12359;SDS011;6244;51.460;7.090;2022-08-19T01:43:34;1138.43;;;886.90;;
12359;SDS011;6244;51.460;7.090;2022-08-19T01:48:35;1135.47;;;880.80;;
12359;SDS011;6244;51.460;7.090;2022-08-19T01:53:33;1136.82;;;882.05;;
12359;SDS011;6244;51.460;7.090;2022-08-19T01:58:30;1138.82;;;885.50;;
12359;SDS011;6244;51.460;7.090;2022-08-19T02:03:32;1139.22;;;888.70;;
12359;SDS011;6244;51.460;7.090;2022-08-19T02:08:29;1139.30;;;892.05;;
12359;SDS011;6244;51.460;7.090;2022-08-19T02:13:26;1137.45;;;888.95;;
12359;SDS011;6244;51.460;7.090;2022-08-19T02:18:23;1135.80;;;887.90;;
12359;SDS011;6244;51.460;7.090;2022-08-19T02:23:22;1138.32;;;892.67;;
12359;SDS011;6244;51.460;7.090;2022-08-19T02:28:19;1136.82;;;882.85;;
12359;SDS011;6244;51.460;7.090;2022-08-19T02:33:16;1135.13;;;883.80;;
12359;SDS011;6244;51.460;7.090;2022-08-19T02:38:12;1138.35;;;891.90;;
12359;SDS011;6244;51.460;7.090;2022-08-19T02:43:23;1134.93;;;887.08;;
12359;SDS011;6244;51.460;7.090;2022-08-19T02:48:21;1138.33;;;892.23;;
12359;SDS011;6244;51.460;7.090;2022-08-19T02:53:19;1136.53;;;888.17;;
12359;SDS011;6244;51.460;7.090;2022-08-19T02:58:17;1138.22;;;889.38;;
12359;SDS011;6244;51.460;7.090;2022-08-19T03:03:15;1136.68;;;885.85;;
12359;SDS011;6244;51.460;7.090;2022-08-19T03:08:12;1137.00;;;880.87;;
12359;SDS011;6244;51.460;7.090;2022-08-19T03:13:09;1137.43;;;887.40;;
12359;SDS011;6244;51.460;7.090;2022-08-19T03:18:07;1136.78;;;860.53;;
12359;SDS011;6244;51.460;7.090;2022-08-19T03:23:05;1135.38;;;857.65;;
12359;SDS011;6244;51.460;7.090;2022-08-19T03:28:01;1131.47;;;853.33;;
12359;SDS011;6244;51.460;7.090;2022-08-19T03:32:58;1135.82;;;861.08;;
12359;SDS011;6244;51.460;7.090;2022-08-19T03:37:55;1132.03;;;852.20;;
12359;SDS011;6244;51.460;7.090;2022-08-19T03:42:53;1134.40;;;855.15;;
12359;SDS011;6244;51.460;7.090;2022-08-19T03:47:50;1132.60;;;848.27;;
12359;SDS011;6244;51.460;7.090;2022-08-19T03:52:47;1136.57;;;859.53;;
12359;SDS011;6244;51.460;7.090;2022-08-19T03:57:45;1137.13;;;861.47;;
12359;SDS011;6244;51.460;7.090;2022-08-19T04:02:44;1131.25;;;849.88;;
12359;SDS011;6244;51.460;7.090;2022-08-19T04:07:41;1132.32;;;845.47;;
12359;SDS011;6244;51.460;7.090;2022-08-19T04:12:37;1133.60;;;837.88;;
12359;SDS011;6244;51.460;7.090;2022-08-19T04:17:34;1132.22;;;839.22;;
12359;SDS011;6244;51.460;7.090;2022-08-19T04:22:32;1134.03;;;841.28;;
12359;SDS011;6244;51.460;7.090;2022-08-19T04:27:28;1131.43;;;841.17;;
12359;SDS011;6244;51.460;7.090;2022-08-19T04:32:26;1129.30;;;830.28;;
12359;SDS011;6244;51.460;7.090;2022-08-19T04:37:22;1130.65;;;835.45;;
12359;SDS011;6244;51.460;7.090;2022-08-19T04:42:21;1130.18;;;841.13;;
12359;SDS011;6244;51.460;7.090;2022-08-19T04:47:35;1127.88;;;836.70;;
12359;SDS011;6244;51.460;7.090;2022-08-19T04:52:32;1129.28;;;849.13;;
12359;SDS011;6244;51.460;7.090;2022-08-19T04:57:30;1135.28;;;837.90;;
12359;SDS011;6244;51.460;7.090;2022-08-19T05:02:27;1141.95;;;837.03;;
12359;SDS011;6244;51.460;7.090;2022-08-19T05:07:24;1146.72;;;825.90;;
12359;SDS011;6244;51.460;7.090;2022-08-19T05:12:21;1146.03;;;823.25;;
12359;SDS011;6244;51.460;7.090;2022-08-19T05:17:19;1141.82;;;820.50;;
12359;SDS011;6244;51.460;7.090;2022-08-19T05:22:15;1144.18;;;836.25;;
12359;SDS011;6244;51.460;7.090;2022-08-19T05:27:30;1136.60;;;814.63;;
12359;SDS011;6244;51.460;7.090;2022-08-19T05:32:28;1138.28;;;817.42;;
12359;SDS011;6244;51.460;7.090;2022-08-19T05:37:25;1138.05;;;825.80;;
12359;SDS011;6244;51.460;7.090;2022-08-19T05:42:22;1137.87;;;817.10;;
12359;SDS011;6244;51.460;7.090;2022-08-19T05:47:19;1138.60;;;815.25;;
12359;SDS011;6244;51.460;7.090;2022-08-19T05:52:18;1138.03;;;825.63;;
12359;SDS011;6244;51.460;7.090;2022-08-19T05:57:15;1135.47;;;816.47;;
12359;SDS011;6244;51.460;7.090;2022-08-19T06:02:11;1139.75;;;831.13;;
12359;SDS011;6244;51.460;7.090;2022-08-19T06:07:09;1133.67;;;825.90;;
12359;SDS011;6244;51.460;7.090;2022-08-19T06:12:07;1136.57;;;819.42;;
12359;SDS011;6244;51.460;7.090;2022-08-19T06:17:04;1133.47;;;821.53;;
12359;SDS011;6244;51.460;7.090;2022-08-19T06:22:00;1138.65;;;830.33;;
12359;SDS011;6244;51.460;7.090;2022-08-19T06:26:58;1137.18;;;821.47;;
12359;SDS011;6244;51.460;7.090;2022-08-19T06:31:57;1135.45;;;819.25;;
12359;SDS011;6244;51.460;7.090;2022-08-19T06:36:55;1136.80;;;844.45;;
12359;SDS011;6244;51.460;7.090;2022-08-19T06:41:55;1132.88;;;825.15;;
12359;SDS011;6244;51.460;7.090;2022-08-19T06:46:53;1134.35;;;834.45;;
12359;SDS011;6244;51.460;7.090;2022-08-19T06:51:52;1126.80;;;821.03;;
12359;SDS011;6244;51.460;7.090;2022-08-19T06:56:51;1128.07;;;806.42;;
12359;SDS011;6244;51.460;7.090;2022-08-19T07:01:49;1128.50;;;801.45;;
12359;SDS011;6244;51.460;7.090;2022-08-19T07:06:47;1127.18;;;814.15;;
12359;SDS011;6244;51.460;7.090;2022-08-19T07:11:47;1127.13;;;809.22;;
12359;SDS011;6244;51.460;7.090;2022-08-19T07:16:44;1135.20;;;822.83;;
12359;SDS011;6244;51.460;7.090;2022-08-19T07:21:42;1139.07;;;831.58;;
12359;SDS011;6244;51.460;7.090;2022-08-19T07:26:39;1132.30;;;819.25;;
12359;SDS011;6244;51.460;7.090;2022-08-19T07:31:40;1132.38;;;825.55;;
12359;SDS011;6244;51.460;7.090;2022-08-19T07:36:37;1140.57;;;854.13;;
12359;SDS011;6244;51.460;7.090;2022-08-19T07:41:35;1129.13;;;821.20;;
12359;SDS011;6244;51.460;7.090;2022-08-19T07:46:32;1136.97;;;844.08;;
12359;SDS011;6244;51.460;7.090;2022-08-19T07:51:31;1139.45;;;846.38;;
12359;SDS011;6244;51.460;7.090;2022-08-19T07:56:28;1138.27;;;847.50;;
12359;SDS011;6244;51.460;7.090;2022-08-19T08:01:26;1138.13;;;861.78;;
12359;SDS011;6244;51.460;7.090;2022-08-19T08:06:23;1138.85;;;854.55;;
12359;SDS011;6244;51.460;7.090;2022-08-19T08:11:38;1144.82;;;867.13;;
12359;SDS011;6244;51.460;7.090;2022-08-19T08:16:36;1142.40;;;869.95;;
12359;SDS011;6244;51.460;7.090;2022-08-19T08:21:35;1147.80;;;863.30;;
12359;SDS011;6244;51.460;7.090;2022-08-19T08:26:31;1153.67;;;877.57;;
12359;SDS011;6244;51.460;7.090;2022-08-19T08:31:29;1153.43;;;899.30;;
12359;SDS011;6244;51.460;7.090;2022-08-19T08:36:27;1147.35;;;903.53;;
12359;SDS011;6244;51.460;7.090;2022-08-19T08:41:26;1150.70;;;906.20;;
12359;SDS011;6244;51.460;7.090;2022-08-19T08:46:30;1146.47;;;917.20;;
12359;SDS011;6244;51.460;7.090;2022-08-19T08:51:33;1143.10;;;921.22;;
12359;SDS011;6244;51.460;7.090;2022-08-19T08:56:33;1132.18;;;960.88;;
12359;SDS011;6244;51.460;7.090;2022-08-19T09:01:31;1123.43;;;957.70;;
12359;SDS011;6244;51.460;7.090;2022-08-19T09:06:29;1128.32;;;953.72;;
12359;SDS011;6244;51.460;7.090;2022-08-19T09:11:36;1128.45;;;943.53;;
12359;SDS011;6244;51.460;7.090;2022-08-19T09:16:44;1119.68;;;942.45;;
12359;SDS011;6244;51.460;7.090;2022-08-19T09:21:41;1117.30;;;932.47;;
12359;SDS011;6244;51.460;7.090;2022-08-19T09:26:37;1110.22;;;922.65;;
12359;SDS011;6244;51.460;7.090;2022-08-19T09:31:34;1122.40;;;969.22;;
12359;SDS011;6244;51.460;7.090;2022-08-19T09:36:32;1124.90;;;946.83;;
12359;SDS011;6244;51.460;7.090;2022-08-19T09:41:31;1126.03;;;948.27;;
12359;SDS011;6244;51.460;7.090;2022-08-19T09:46:28;1123.38;;;953.42;;
12359;SDS011;6244;51.460;7.090;2022-08-19T09:51:26;1123.28;;;970.72;;
12359;SDS011;6244;51.460;7.090;2022-08-19T09:56:25;1122.85;;;982.65;;
12359;SDS011;6244;51.460;7.090;2022-08-19T10:01:22;1097.83;;;922.17;;
12359;SDS011;6244;51.460;7.090;2022-08-19T10:06:21;1110.45;;;941.25;;
12359;SDS011;6244;51.460;7.090;2022-08-19T10:11:19;1111.23;;;949.97;;
12359;SDS011;6244;51.460;7.090;2022-08-19T10:16:18;1105.07;;;937.60;;
12359;SDS011;6244;51.460;7.090;2022-08-19T10:21:17;1108.20;;;981.17;;
12359;SDS011;6244;51.460;7.090;2022-08-19T10:26:18;1094.32;;;950.10;;
12359;SDS011;6244;51.460;7.090;2022-08-19T10:31:21;1098.15;;;938.28;;
12359;SDS011;6244;51.460;7.090;2022-08-19T10:36:21;1102.22;;;972.67;;
12359;SDS011;6244;51.460;7.090;2022-08-19T10:41:19;1100.30;;;958.63;;
12359;SDS011;6244;51.460;7.090;2022-08-19T10:46:19;1102.43;;;965.03;;
12359;SDS011;6244;51.460;7.090;2022-08-19T10:51:17;1102.80;;;969.97;;
12359;SDS011;6244;51.460;7.090;2022-08-19T10:56:32;1110.20;;;961.13;;
12359;SDS011;6244;51.460;7.090;2022-08-19T11:01:49;1120.88;;;955.42;;
12359;SDS011;6244;51.460;7.090;2022-08-19T11:06:47;1123.57;;;940.50;;
12359;SDS011;6244;51.460;7.090;2022-08-19T11:11:44;1123.63;;;966.88;;
12359;SDS011;6244;51.460;7.090;2022-08-19T11:16:42;1111.63;;;962.63;;
12359;SDS011;6244;51.460;7.090;2022-08-19T11:21:41;1103.88;;;973.53;;
12359;SDS011;6244;51.460;7.090;2022-08-19T11:26:39;1108.38;;;967.35;;
12359;SDS011;6244;51.460;7.090;2022-08-19T11:31:37;1103.68;;;956.92;;
12359;SDS011;6244;51.460;7.090;2022-08-19T11:36:34;1104.55;;;969.15;;
12359;SDS011;6244;51.460;7.090;2022-08-19T11:41:35;1111.43;;;988.53;;
12359;SDS011;6244;51.460;7.090;2022-08-19T11:46:32;1115.57;;;993.75;;
12359;SDS011;6244;51.460;7.090;2022-08-19T11:51:28;1106.55;;;985.25;;
12359;SDS011;6244;51.460;7.090;2022-08-19T11:56:26;1095.70;;;964.80;;
12359;SDS011;6244;51.460;7.090;2022-08-19T12:01:25;1098.70;;;977.03;;
12359;SDS011;6244;51.460;7.090;2022-08-19T12:06:23;1104.00;;;974.43;;
12359;SDS011;6244;51.460;7.090;2022-08-19T12:11:22;1094.65;;;964.60;;
12359;SDS011;6244;51.460;7.090;2022-08-19T12:16:19;1106.33;;;954.30;;
12359;SDS011;6244;51.460;7.090;2022-08-19T12:21:19;1109.20;;;938.97;;
12359;SDS011;6244;51.460;7.090;2022-08-19T12:26:17;1106.25;;;948.13;;
12359;SDS011;6244;51.460;7.090;2022-08-19T12:31:14;1111.15;;;955.22;;
12359;SDS011;6244;51.460;7.090;2022-08-19T12:36:12;1108.43;;;950.85;;
12359;SDS011;6244;51.460;7.090;2022-08-19T12:41:12;1106.00;;;943.93;;
12359;SDS011;6244;51.460;7.090;2022-08-19T12:46:12;1104.95;;;945.55;;
12359;SDS011;6244;51.460;7.090;2022-08-19T12:51:10;1096.82;;;933.83;;
12359;SDS011;6244;51.460;7.090;2022-08-19T12:56:09;1086.90;;;903.83;;
12359;SDS011;6244;51.460;7.090;2022-08-19T13:01:10;1095.75;;;928.47;;
12359;SDS011;6244;51.460;7.090;2022-08-19T13:06:07;1092.30;;;929.92;;
12359;SDS011;6244;51.460;7.090;2022-08-19T13:11:09;1092.20;;;913.08;;
12359;SDS011;6244;51.460;7.090;2022-08-19T13:16:07;1095.67;;;920.13;;
12359;SDS011;6244;51.460;7.090;2022-08-19T13:21:06;1091.65;;;923.20;;
12359;SDS011;6244;51.460;7.090;2022-08-19T13:26:07;1090.38;;;918.90;;
12359;SDS011;6244;51.460;7.090;2022-08-19T13:31:05;1091.13;;;917.50;;
12359;SDS011;6244;51.460;7.090;2022-08-19T13:36:20;1089.82;;;920.53;;
12359;SDS011;6244;51.460;7.090;2022-08-19T13:41:17;1099.43;;;912.03;;
12359;SDS011;6244;51.460;7.090;2022-08-19T13:46:14;1100.50;;;911.00;;
12359;SDS011;6244;51.460;7.090;2022-08-19T13:51:11;1095.60;;;907.77;;
12359;SDS011;6244;51.460;7.090;2022-08-19T13:56:10;1092.50;;;903.55;;
12359;SDS011;6244;51.460;7.090;2022-08-19T14:01:07;1093.03;;;912.72;;
12359;SDS011;6244;51.460;7.090;2022-08-19T14:06:04;1098.18;;;921.00;;
12359;SDS011;6244;51.460;7.090;2022-08-19T14:11:03;1094.93;;;911.37;;
12359;SDS011;6244;51.460;7.090;2022-08-19T14:16:01;1095.85;;;916.53;;
12359;SDS011;6244;51.460;7.090;2022-08-19T14:21:04;1087.72;;;902.28;;
12359;SDS011;6244;51.460;7.090;2022-08-19T14:26:04;1094.13;;;902.35;;
12359;SDS011;6244;51.460;7.090;2022-08-19T14:31:04;1094.00;;;901.25;;
12359;SDS011;6244;51.460;7.090;2022-08-19T14:36:00;1091.17;;;896.33;;
12359;SDS011;6244;51.460;7.090;2022-08-19T14:41:05;1091.95;;;901.75;;
12359;SDS011;6244;51.460;7.090;2022-08-19T14:46:05;1089.57;;;898.03;;
12359;SDS011;6244;51.460;7.090;2022-08-19T14:51:02;1095.43;;;901.42;;
12359;SDS011;6244;51.460;7.090;2022-08-19T14:55:58;1096.93;;;899.47;;
12359;SDS011;6244;51.460;7.090;2022-08-19T15:00:56;1096.68;;;898.63;;
12359;SDS011;6244;51.460;7.090;2022-08-19T15:05:55;1092.70;;;898.88;;
12359;SDS011;6244;51.460;7.090;2022-08-19T15:10:52;1093.53;;;909.33;;
12359;SDS011;6244;51.460;7.090;2022-08-19T15:15:49;1105.72;;;896.22;;
12359;SDS011;6244;51.460;7.090;2022-08-19T15:20:47;1101.03;;;902.20;;
12359;SDS011;6244;51.460;7.090;2022-08-19T15:25:46;1104.72;;;911.67;;
12359;SDS011;6244;51.460;7.090;2022-08-19T15:30:42;1105.45;;;904.33;;
12359;SDS011;6244;51.460;7.090;2022-08-19T15:35:39;1111.30;;;905.45;;
12359;SDS011;6244;51.460;7.090;2022-08-19T15:40:37;1106.80;;;896.53;;
12359;SDS011;6244;51.460;7.090;2022-08-19T15:45:34;1093.10;;;880.90;;
12359;SDS011;6244;51.460;7.090;2022-08-19T15:50:31;1099.23;;;902.87;;
12359;SDS011;6244;51.460;7.090;2022-08-19T15:55:28;1099.25;;;910.08;;
12359;SDS011;6244;51.460;7.090;2022-08-19T16:00:27;1098.32;;;901.45;;
12359;SDS011;6244;51.460;7.090;2022-08-19T16:05:42;1096.97;;;895.73;;
12359;SDS011;6244;51.460;7.090;2022-08-19T16:10:56;1099.97;;;906.25;;
12359;SDS011;6244;51.460;7.090;2022-08-19T16:15:53;1097.07;;;914.55;;
12359;SDS011;6244;51.460;7.090;2022-08-19T16:20:52;1092.78;;;902.17;;
12359;SDS011;6244;51.460;7.090;2022-08-19T16:25:49;1095.00;;;902.28;;
12359;SDS011;6244;51.460;7.090;2022-08-19T16:30:45;1099.20;;;907.80;;
12359;SDS011;6244;51.460;7.090;2022-08-19T16:35:42;1106.47;;;923.77;;
12359;SDS011;6244;51.460;7.090;2022-08-19T16:40:40;1103.95;;;897.60;;
12359;SDS011;6244;51.460;7.090;2022-08-19T16:45:36;1103.18;;;901.08;;
12359;SDS011;6244;51.460;7.090;2022-08-19T16:50:33;1106.40;;;904.07;;
12359;SDS011;6244;51.460;7.090;2022-08-19T16:55:29;1104.97;;;903.08;;
12359;SDS011;6244;51.460;7.090;2022-08-19T17:00:27;1106.50;;;894.67;;
12359;SDS011;6244;51.460;7.090;2022-08-19T17:05:24;1106.55;;;887.60;;
12359;SDS011;6244;51.460;7.090;2022-08-19T17:10:20;1113.70;;;882.17;;
12359;SDS011;6244;51.460;7.090;2022-08-19T17:15:17;1121.38;;;858.13;;
12359;SDS011;6244;51.460;7.090;2022-08-19T17:20:15;1116.77;;;856.07;;
12359;SDS011;6244;51.460;7.090;2022-08-19T17:25:12;1117.80;;;859.13;;
12359;SDS011;6244;51.460;7.090;2022-08-19T17:30:10;1113.57;;;878.95;;
12359;SDS011;6244;51.460;7.090;2022-08-19T17:35:07;1114.57;;;846.55;;
12359;SDS011;6244;51.460;7.090;2022-08-19T17:40:06;1117.45;;;861.42;;
12359;SDS011;6244;51.460;7.090;2022-08-19T17:45:04;1112.60;;;843.07;;
12359;SDS011;6244;51.460;7.090;2022-08-19T17:50:02;1111.10;;;849.70;;
12359;SDS011;6244;51.460;7.090;2022-08-19T17:54:59;1101.50;;;862.95;;
12359;SDS011;6244;51.460;7.090;2022-08-19T17:59:57;1100.25;;;868.53;;
12359;SDS011;6244;51.460;7.090;2022-08-19T18:04:54;1108.93;;;860.25;;
12359;SDS011;6244;51.460;7.090;2022-08-19T18:09:50;1111.47;;;843.67;;
12359;SDS011;6244;51.460;7.090;2022-08-19T18:14:48;1114.53;;;858.43;;
12359;SDS011;6244;51.460;7.090;2022-08-19T18:19:47;1115.20;;;860.53;;
12359;SDS011;6244;51.460;7.090;2022-08-19T18:24:43;1114.78;;;857.80;;
12359;SDS011;6244;51.460;7.090;2022-08-19T18:29:40;1120.37;;;867.00;;
12359;SDS011;6244;51.460;7.090;2022-08-19T18:34:37;1113.63;;;847.90;;
12359;SDS011;6244;51.460;7.090;2022-08-19T18:39:36;1112.63;;;850.88;;
12359;SDS011;6244;51.460;7.090;2022-08-19T18:44:50;1116.35;;;853.45;;
12359;SDS011;6244;51.460;7.090;2022-08-19T18:50:04;1112.90;;;850.38;;
12359;SDS011;6244;51.460;7.090;2022-08-19T18:55:05;1121.38;;;865.00;;
12359;SDS011;6244;51.460;7.090;2022-08-19T19:00:03;1123.75;;;864.30;;
12359;SDS011;6244;51.460;7.090;2022-08-19T19:05:01;1122.35;;;851.05;;
12359;SDS011;6244;51.460;7.090;2022-08-19T19:09:59;1121.07;;;855.25;;
12359;SDS011;6244;51.460;7.090;2022-08-19T19:14:57;1123.60;;;862.88;;
12359;SDS011;6244;51.460;7.090;2022-08-19T19:19:53;1122.82;;;861.83;;
12359;SDS011;6244;51.460;7.090;2022-08-19T19:24:50;1126.05;;;860.35;;
12359;SDS011;6244;51.460;7.090;2022-08-19T19:29:49;1124.78;;;869.50;;
12359;SDS011;6244;51.460;7.090;2022-08-19T19:34:48;1128.83;;;875.90;;
12359;SDS011;6244;51.460;7.090;2022-08-19T19:39:45;1122.32;;;858.58;;
12359;SDS011;6244;51.460;7.090;2022-08-19T19:44:42;1125.28;;;882.47;;
12359;SDS011;6244;51.460;7.090;2022-08-19T19:49:42;1121.53;;;872.60;;
12359;SDS011;6244;51.460;7.090;2022-08-19T19:54:39;1121.07;;;874.42;;
12359;SDS011;6244;51.460;7.090;2022-08-19T19:59:36;1119.28;;;874.08;;
12359;SDS011;6244;51.460;7.090;2022-08-19T20:04:33;1116.70;;;861.97;;
12359;SDS011;6244;51.460;7.090;2022-08-19T20:09:31;1115.13;;;868.07;;
12359;SDS011;6244;51.460;7.090;2022-08-19T20:14:30;1114.57;;;859.33;;
12359;SDS011;6244;51.460;7.090;2022-08-19T20:19:30;1117.20;;;870.40;;
12359;SDS011;6244;51.460;7.090;2022-08-19T20:24:31;1113.55;;;856.10;;
12359;SDS011;6244;51.460;7.090;2022-08-19T20:29:31;1113.55;;;862.08;;
12359;SDS011;6244;51.460;7.090;2022-08-19T20:34:28;1111.60;;;853.63;;
12359;SDS011;6244;51.460;7.090;2022-08-19T20:39:25;1113.32;;;856.22;;
12359;SDS011;6244;51.460;7.090;2022-08-19T20:44:21;1116.03;;;864.83;;
12359;SDS011;6244;51.460;7.090;2022-08-19T20:49:20;1121.32;;;880.40;;
12359;SDS011;6244;51.460;7.090;2022-08-19T20:54:17;1119.83;;;872.67;;
12359;SDS011;6244;51.460;7.090;2022-08-19T20:59:13;1121.65;;;873.17;;
12359;SDS011;6244;51.460;7.090;2022-08-19T21:04:10;1123.80;;;873.93;;
12359;SDS011;6244;51.460;7.090;2022-08-19T21:09:08;1127.70;;;875.22;;
12359;SDS011;6244;51.460;7.090;2022-08-19T21:14:04;1124.78;;;839.72;;
12359;SDS011;6244;51.460;7.090;2022-08-19T21:19:01;1126.18;;;857.15;;
12359;SDS011;6244;51.460;7.090;2022-08-19T21:23:58;1126.10;;;854.10;;
12359;SDS011;6244;51.460;7.090;2022-08-19T21:28:57;1124.60;;;858.83;;
12359;SDS011;6244;51.460;7.090;2022-08-19T21:33:53;1130.47;;;855.53;;
12359;SDS011;6244;51.460;7.090;2022-08-19T21:38:50;1123.32;;;852.58;;
12359;SDS011;6244;51.460;7.090;2022-08-19T21:43:46;1119.45;;;852.08;;
12359;SDS011;6244;51.460;7.090;2022-08-19T21:48:44;1121.97;;;860.63;;
12359;SDS011;6244;51.460;7.090;2022-08-19T21:53:41;1119.93;;;849.60;;
12359;SDS011;6244;51.460;7.090;2022-08-19T21:58:38;1118.23;;;849.27;;
12359;SDS011;6244;51.460;7.090;2022-08-19T22:03:35;1119.90;;;850.87;;
12359;SDS011;6244;51.460;7.090;2022-08-19T22:08:35;1116.28;;;851.90;;
12359;SDS011;6244;51.460;7.090;2022-08-19T22:13:33;1117.70;;;854.50;;
12359;SDS011;6244;51.460;7.090;2022-08-19T22:18:32;1118.57;;;853.67;;
12359;SDS011;6244;51.460;7.090;2022-08-19T22:23:29;1121.15;;;858.03;;
12359;SDS011;6244;51.460;7.090;2022-08-19T22:28:29;1123.73;;;824.40;;
12359;SDS011;6244;51.460;7.090;2022-08-19T22:33:25;1134.65;;;833.22;;
12359;SDS011;6244;51.460;7.090;2022-08-19T22:38:23;1142.53;;;826.83;;
12359;SDS011;6244;51.460;7.090;2022-08-19T22:43:21;1137.13;;;804.60;;
12359;SDS011;6244;51.460;7.090;2022-08-19T22:48:22;1141.43;;;818.75;;
12359;SDS011;6244;51.460;7.090;2022-08-19T22:53:20;1138.53;;;791.15;;
12359;SDS011;6244;51.460;7.090;2022-08-19T22:58:16;1145.47;;;806.17;;
12359;SDS011;6244;51.460;7.090;2022-08-19T23:03:13;1146.90;;;804.25;;
12359;SDS011;6244;51.460;7.090;2022-08-19T23:08:11;1144.03;;;800.13;;
12359;SDS011;6244;51.460;7.090;2022-08-19T23:13:07;1147.65;;;809.97;;
12359;SDS011;6244;51.460;7.090;2022-08-19T23:18:04;1138.13;;;798.88;;
12359;SDS011;6244;51.460;7.090;2022-08-19T23:23:01;1140.60;;;793.77;;
12359;SDS011;6244;51.460;7.090;2022-08-19T23:28:01;1133.53;;;786.30;;
12359;SDS011;6244;51.460;7.090;2022-08-19T23:33:16;1139.55;;;802.58;;
12359;SDS011;6244;51.460;7.090;2022-08-19T23:38:18;1138.28;;;804.03;;
12359;SDS011;6244;51.460;7.090;2022-08-19T23:43:18;1134.43;;;803.00;;
12359;SDS011;6244;51.460;7.090;2022-08-19T23:48:15;1129.50;;;786.47;;
12359;SDS011;6244;51.460;7.090;2022-08-19T23:53:12;1136.63;;;799.42;;
12359;SDS011;6244;51.460;7.090;2022-08-19T23:58:10;1137.70;;;802.50;;
